createdAt,value
2023-04-21T00:01:59.446Z,1.80
2023-04-21T00:04:29.148Z,1.80
2023-04-21T00:06:57.599Z,1.90
2023-04-21T00:09:26.208Z,2.00
2023-04-21T00:11:55.102Z,1.90
2023-04-21T00:14:23.428Z,1.90
2023-04-21T00:16:52.904Z,2.80
2023-04-21T00:19:21.357Z,1.70
2023-04-21T00:21:49.778Z,1.90
2023-04-21T00:24:18.212Z,2.00
2023-04-21T00:26:46.408Z,1.80
2023-04-21T00:29:14.714Z,1.60
2023-04-21T00:31:43.113Z,1.90
2023-04-21T00:34:11.747Z,1.50
2023-04-21T00:36:39.996Z,1.90
2023-04-21T00:39:08.318Z,2.00
2023-04-21T00:41:37.240Z,1.60
2023-04-21T00:44:06.766Z,1.60
2023-04-21T00:46:35.505Z,2.10
2023-04-21T00:49:06.916Z,1.70
2023-04-21T00:51:36.137Z,2.00
2023-04-21T00:54:05.539Z,1.80
2023-04-21T00:56:35.597Z,1.50
2023-04-21T00:59:04.400Z,2.00
2023-04-21T01:01:34.518Z,2.10
2023-04-21T01:04:04.208Z,1.60
2023-04-21T01:06:33.227Z,1.90
2023-04-21T01:09:01.597Z,2.30
2023-04-21T01:11:30.102Z,1.90
2023-04-21T01:13:58.888Z,2.00
2023-04-21T01:16:27.165Z,1.70
2023-04-21T01:18:55.478Z,1.50
2023-04-21T01:21:23.913Z,2.00
2023-04-21T01:23:52.231Z,2.40
2023-04-21T01:26:21.825Z,1.80
2023-04-21T01:28:50.119Z,1.90
2023-04-21T01:31:18.736Z,1.70
2023-04-21T01:33:46.987Z,1.70
2023-04-21T01:36:15.243Z,2.10
2023-04-21T01:38:43.850Z,1.70
2023-04-21T01:41:12.391Z,2.10
2023-04-21T01:43:40.563Z,1.80
2023-04-21T01:46:09.223Z,1.80
2023-04-21T01:48:39.372Z,2.00
2023-04-21T01:51:07.960Z,2.00
2023-04-21T01:53:36.419Z,2.30
2023-04-21T01:56:05.102Z,1.70
2023-04-21T01:58:33.697Z,1.80
2023-04-21T02:01:02.234Z,2.00
2023-04-21T02:03:31.402Z,1.80
2023-04-21T02:05:59.758Z,2.10
2023-04-21T02:08:28.026Z,2.20
2023-04-21T02:10:56.524Z,2.00
2023-04-21T02:13:24.900Z,2.40
2023-04-21T02:16:02.440Z,1.60
2023-04-21T02:18:40.209Z,2.10
2023-04-21T02:21:08.499Z,2.10
2023-04-21T02:23:36.739Z,2.40
2023-04-21T02:26:05.686Z,1.80
2023-04-21T02:28:34.012Z,1.90
2023-04-21T02:31:02.522Z,1.70
2023-04-21T02:33:31.873Z,1.90
2023-04-21T02:36:00.156Z,1.50
2023-04-21T02:38:29.026Z,1.70
2023-04-21T02:40:57.966Z,1.60
2023-04-21T02:43:26.982Z,1.50
2023-04-21T02:45:56.899Z,2.40
2023-04-21T02:48:25.711Z,1.80
2023-04-21T02:50:54.805Z,2.30
2023-04-21T02:53:23.159Z,1.60
2023-04-21T02:55:52.850Z,1.90
2023-04-21T02:58:21.255Z,2.20
2023-04-21T03:00:49.539Z,2.00
2023-04-21T03:03:17.984Z,1.80
2023-04-21T03:05:46.655Z,1.40
2023-04-21T03:08:14.903Z,1.30
2023-04-21T03:10:43.414Z,1.40
2023-04-21T03:13:11.612Z,1.70
2023-04-21T03:15:41.129Z,1.50
2023-04-21T03:18:09.555Z,1.60
2023-04-21T03:20:37.920Z,1.90
2023-04-21T03:23:06.271Z,1.50
2023-04-21T03:25:35.109Z,1.40
2023-04-21T03:28:03.978Z,1.30
2023-04-21T03:30:33.151Z,1.60
2023-04-21T03:33:01.399Z,1.30
2023-04-21T03:35:30.949Z,1.40
2023-04-21T03:38:01.268Z,1.60
2023-04-21T03:40:32.006Z,1.70
2023-04-21T03:43:00.825Z,1.70
2023-04-21T03:45:29.037Z,1.40
2023-04-21T03:48:00.619Z,1.80
2023-04-21T03:50:29.325Z,1.60
2023-04-21T03:52:57.904Z,1.60
2023-04-21T03:55:26.538Z,1.40
2023-04-21T03:57:54.730Z,1.80
2023-04-21T04:00:22.969Z,2.10
2023-04-21T04:02:51.407Z,1.70
2023-04-21T04:05:20.162Z,2.00
2023-04-21T04:07:48.528Z,2.00
2023-04-21T04:10:16.929Z,2.60
2023-04-21T04:12:45.215Z,2.30
2023-04-21T04:15:13.537Z,1.90
2023-04-21T04:17:42.260Z,2.40
2023-04-21T04:20:10.743Z,1.60
2023-04-21T04:22:39.425Z,2.00
2023-04-21T04:25:08.002Z,2.10
2023-04-21T04:27:37.101Z,2.10
2023-04-21T04:30:06.024Z,2.10
2023-04-21T04:32:34.933Z,2.10
2023-04-21T04:35:03.243Z,2.00
2023-04-21T04:37:32.041Z,2.20
2023-04-21T04:40:00.736Z,2.40
2023-04-21T04:42:29.179Z,2.40
2023-04-21T04:44:57.647Z,2.60
2023-04-21T04:47:25.995Z,3.00
2023-04-21T04:49:54.297Z,3.00
2023-04-21T04:52:22.610Z,3.20
2023-04-21T04:54:50.949Z,2.60
2023-04-21T04:57:19.409Z,3.10
2023-04-21T04:59:47.983Z,2.90
2023-04-21T05:02:16.674Z,2.80
2023-04-21T05:04:45.218Z,3.10
2023-04-21T05:07:13.691Z,3.60
2023-04-21T05:09:42.376Z,2.70
2023-04-21T05:12:10.804Z,2.80
2023-04-21T05:14:39.336Z,2.30
2023-04-21T05:17:07.703Z,2.30
2023-04-21T05:19:37.597Z,2.40
2023-04-21T05:22:08.550Z,3.00
2023-04-21T05:24:37.911Z,2.80
2023-04-21T05:27:06.159Z,2.90
2023-04-21T05:29:34.704Z,2.30
2023-04-21T05:32:03.383Z,2.40
2023-04-21T05:34:31.941Z,2.80
2023-04-21T05:37:00.189Z,1.90
2023-04-21T05:39:28.858Z,2.00
2023-04-21T05:41:57.127Z,1.80
2023-04-21T05:44:25.807Z,2.10
2023-04-21T05:46:54.230Z,2.60
2023-04-21T05:49:22.491Z,1.90
2023-04-21T05:51:50.740Z,1.50
2023-04-21T05:54:19.904Z,1.90
2023-04-21T05:56:48.769Z,1.90
2023-04-21T05:59:17.490Z,2.50
2023-04-21T06:01:46.023Z,1.50
2023-04-21T06:04:14.791Z,1.90
2023-04-21T06:06:44.550Z,1.80
2023-04-21T06:09:15.858Z,2.00
2023-04-21T06:11:44.188Z,2.10
2023-04-21T06:14:12.460Z,1.80
2023-04-21T06:16:40.923Z,1.80
2023-04-21T06:19:09.630Z,1.70
2023-04-21T06:21:38.296Z,2.10
2023-04-21T06:24:07.261Z,2.00
2023-04-21T06:26:36.116Z,2.20
2023-04-21T06:29:04.439Z,1.70
2023-04-21T06:31:32.664Z,1.70
2023-04-21T06:34:01.059Z,2.00
2023-04-21T06:36:30.198Z,2.00
2023-04-21T06:38:58.655Z,2.20
2023-04-21T06:41:27.159Z,2.00
2023-04-21T06:43:55.566Z,2.10
2023-04-21T06:46:24.049Z,2.20
2023-04-21T06:48:52.554Z,1.90
2023-04-21T06:51:20.895Z,1.80
2023-04-21T06:53:49.178Z,2.50
2023-04-21T06:56:17.413Z,2.00
2023-04-21T06:58:47.283Z,2.00
2023-04-21T07:01:15.929Z,1.90
2023-04-21T07:03:44.335Z,1.60
2023-04-21T07:06:13.044Z,1.90
2023-04-21T07:08:41.868Z,2.30
2023-04-21T07:11:10.118Z,1.70
2023-04-21T07:13:38.802Z,1.90
2023-04-21T07:16:07.202Z,2.30
2023-04-21T07:18:36.259Z,2.20
2023-04-21T07:21:04.702Z,2.40
2023-04-21T07:23:33.822Z,2.20
2023-04-21T07:26:02.296Z,2.00
2023-04-21T07:28:30.678Z,2.10
2023-04-21T07:31:00.937Z,1.80
2023-04-21T07:33:30.972Z,2.30
2023-04-21T07:35:59.352Z,2.20
2023-04-21T07:38:28.542Z,2.30
2023-04-21T07:40:56.913Z,1.90
2023-04-21T07:43:26.978Z,2.30
2023-04-21T07:45:55.205Z,2.20
2023-04-21T07:48:23.632Z,2.40
2023-04-21T07:50:53.487Z,1.70
2023-04-21T07:53:21.733Z,1.60
2023-04-21T07:55:49.977Z,2.00
2023-04-21T07:58:18.393Z,2.00
2023-04-21T08:00:46.645Z,1.70
2023-04-21T08:03:15.381Z,1.80
2023-04-21T08:05:43.997Z,1.80
2023-04-21T08:08:12.525Z,1.90
2023-04-21T08:10:41.177Z,1.80
2023-04-21T08:13:10.781Z,2.10
2023-04-21T08:15:39.743Z,2.10
2023-04-21T08:18:08.829Z,1.90
2023-04-21T08:20:37.231Z,1.50
2023-04-21T08:23:05.829Z,2.60
2023-04-21T08:25:34.557Z,2.10
2023-04-21T08:28:03.576Z,2.00
2023-04-21T08:30:32.047Z,2.30
2023-04-21T08:33:00.418Z,1.50
2023-04-21T08:37:19.986Z,2.10
2023-04-21T08:39:51.034Z,1.90
2023-04-21T08:42:19.654Z,2.00
2023-04-21T08:44:48.157Z,2.00
2023-04-21T08:47:16.584Z,1.40
2023-04-21T08:49:45.538Z,1.70
2023-04-21T08:52:14.833Z,1.80
2023-04-21T08:54:43.144Z,1.30
2023-04-21T08:57:15.968Z,2.30
2023-04-21T08:59:45.615Z,1.60
2023-04-21T09:02:18.108Z,1.60
2023-04-21T09:04:48.960Z,1.70
2023-04-21T09:07:37.069Z,1.70
2023-04-21T09:10:06.216Z,2.10
2023-04-21T09:12:34.734Z,2.50
2023-04-21T09:15:10.711Z,1.50
2023-04-21T09:17:39.250Z,1.90
2023-04-21T09:20:17.473Z,2.10
2023-04-21T09:22:47.307Z,2.00
2023-04-21T09:25:16.814Z,1.70
2023-04-21T09:27:46.207Z,1.60
2023-04-21T09:30:18.548Z,1.80
2023-04-21T09:32:46.969Z,2.10
2023-04-21T09:35:15.281Z,2.40
2023-04-21T09:37:44.636Z,1.50
2023-04-21T09:40:18.566Z,1.30
2023-04-21T09:42:50.600Z,1.50
2023-04-21T09:47:56.076Z,1.40
2023-04-21T09:50:54.242Z,1.70
2023-04-21T09:53:15.494Z,1.40
2023-04-21T09:55:43.824Z,1.40
2023-04-21T09:58:12.179Z,1.50
2023-04-21T10:00:41.222Z,1.80
2023-04-21T10:03:12.376Z,1.90
2023-04-21T10:05:42.816Z,1.40
2023-04-21T10:08:12.264Z,1.40
2023-04-21T10:10:41.003Z,1.50
2023-04-21T10:13:14.783Z,1.50
2023-04-21T10:15:43.716Z,1.30
2023-04-21T10:18:19.885Z,1.40
2023-04-21T10:21:10.750Z,1.70
2023-04-21T10:23:46.673Z,1.30
2023-04-21T10:26:21.035Z,1.30
2023-04-21T10:28:55.181Z,1.20
2023-04-21T10:31:39.693Z,0.90
2023-04-21T10:34:13.823Z,1.50
2023-04-21T10:36:45.396Z,1.90
2023-04-21T10:39:29.418Z,1.60
2023-04-21T10:42:21.145Z,1.70
2023-04-21T10:44:58.608Z,1.60
2023-04-21T10:49:58.183Z,1.30
2023-04-21T10:52:36.141Z,1.40
2023-04-21T10:55:10.802Z,1.40
2023-04-21T10:57:44.537Z,1.60
2023-04-21T11:00:17.695Z,1.30
2023-04-21T11:02:54.242Z,1.40
2023-04-21T11:05:38.780Z,1.50
2023-04-21T11:08:15.316Z,1.90
2023-04-21T11:10:55.290Z,1.60
2023-04-21T11:13:26.024Z,1.50
2023-04-21T11:16:07.576Z,1.90
2023-04-21T11:18:40.694Z,2.60
2023-04-21T11:21:20.294Z,2.10
2023-04-21T11:24:00.508Z,1.90
2023-04-21T11:26:42.824Z,1.90
2023-04-21T11:29:12.058Z,1.90
2023-04-21T11:31:43.190Z,1.60
2023-04-21T11:34:11.664Z,2.10
2023-04-21T11:36:41.532Z,1.80
2023-04-21T11:39:11.555Z,1.80
2023-04-21T11:41:41.929Z,1.40
2023-04-21T11:44:13.553Z,2.30
2023-04-21T11:46:46.806Z,1.80
2023-04-21T11:49:15.951Z,1.90
2023-04-21T11:51:47.675Z,1.90
2023-04-21T11:54:17.995Z,1.40
2023-04-21T11:56:47.207Z,1.90
2023-04-21T11:59:26.220Z,1.60
2023-04-21T12:01:54.759Z,1.70
2023-04-21T12:04:24.216Z,1.30
2023-04-21T12:07:00.760Z,1.50
2023-04-21T12:09:29.813Z,1.50
2023-04-21T12:11:59.067Z,1.90
2023-04-21T12:14:27.590Z,1.90
2023-04-21T12:16:58.319Z,2.40
2023-04-21T12:19:41.067Z,1.80
2023-04-21T12:22:10.286Z,1.60
2023-04-21T12:24:38.812Z,1.40
2023-04-21T12:27:07.576Z,2.30
2023-04-21T12:29:37.623Z,2.00
2023-04-21T12:32:06.644Z,1.70
2023-04-21T12:34:35.749Z,1.40
2023-04-21T12:37:04.338Z,1.50
2023-04-21T12:39:33.508Z,1.70
2023-04-21T12:42:02.287Z,2.00
2023-04-21T12:44:30.899Z,1.90
2023-04-21T12:46:59.102Z,1.60
2023-04-21T12:49:28.171Z,1.70
2023-04-21T12:51:57.326Z,1.70
2023-04-21T12:54:25.605Z,1.80
2023-04-21T12:56:54.288Z,1.90
2023-04-21T12:59:22.672Z,1.80
2023-04-21T13:01:51.245Z,1.90
2023-04-21T13:04:19.988Z,1.60
2023-04-21T13:06:48.629Z,1.80
2023-04-21T13:09:17.284Z,2.10
2023-04-21T13:11:45.936Z,2.00
2023-04-21T13:14:16.064Z,1.70
2023-04-21T13:16:44.536Z,1.80
2023-04-21T13:19:13.173Z,2.10
2023-04-21T13:21:41.705Z,2.00
2023-04-21T13:24:11.308Z,1.70
2023-04-21T13:26:42.661Z,2.00
2023-04-21T13:29:11.461Z,1.80
2023-04-21T13:31:39.873Z,2.20
2023-04-21T13:34:08.240Z,2.00
2023-04-21T13:36:36.504Z,1.30
2023-04-21T13:39:05.881Z,1.70
2023-04-21T13:41:35.759Z,1.70
2023-04-21T13:44:04.255Z,1.90
2023-04-21T13:46:32.674Z,1.60
2023-04-21T13:49:01.325Z,1.80
2023-04-21T13:51:30.464Z,1.70
2023-04-21T13:53:59.084Z,2.10
2023-04-21T13:56:27.487Z,1.60
2023-04-21T13:58:56.092Z,1.80
2023-04-21T14:01:24.318Z,1.60
2023-04-21T14:03:54.252Z,1.80
2023-04-21T14:06:23.090Z,1.50
2023-04-21T14:08:51.541Z,2.30
2023-04-21T14:11:20.156Z,2.30
2023-04-21T14:14:07.419Z,1.40
2023-04-21T14:16:37.617Z,2.10
2023-04-21T14:19:06.384Z,1.70
2023-04-21T14:21:35.013Z,1.60
2023-04-21T14:24:04.079Z,2.10
2023-04-21T14:26:32.668Z,2.00
2023-04-21T14:29:01.796Z,1.70
2023-04-21T14:31:30.572Z,1.70
2023-04-21T14:33:58.879Z,2.10
2023-04-21T14:36:28.144Z,2.10
2023-04-21T14:38:56.562Z,1.50
2023-04-21T14:41:25.316Z,1.70
2023-04-21T14:43:56.160Z,2.20
2023-04-21T14:46:24.883Z,1.90
2023-04-21T14:48:53.682Z,2.00
2023-04-21T14:51:22.044Z,2.10
2023-04-21T14:53:50.670Z,2.50
2023-04-21T14:56:19.754Z,1.80
2023-04-21T14:58:48.177Z,2.20
2023-04-21T15:01:16.523Z,2.40
2023-04-21T15:03:45.022Z,1.60
2023-04-21T15:06:13.568Z,1.60
2023-04-21T15:08:42.071Z,2.60
2023-04-21T15:11:10.388Z,1.70
2023-04-21T15:13:38.746Z,1.70
2023-04-21T15:16:07.775Z,2.40
2023-04-21T15:18:37.301Z,2.20
2023-04-21T15:21:05.959Z,2.40
2023-04-21T15:23:36.056Z,1.90
2023-04-21T15:26:04.947Z,2.20
2023-04-21T15:28:33.589Z,2.20
2023-04-21T15:31:02.953Z,2.40
2023-04-21T15:33:31.705Z,2.30
2023-04-21T15:35:59.827Z,1.90
2023-04-21T15:38:28.135Z,2.00
2023-04-21T15:41:01.153Z,1.90
2023-04-21T15:43:33.317Z,2.20
2023-04-21T15:46:01.592Z,2.10
2023-04-21T15:48:29.988Z,2.30
2023-04-21T15:50:58.465Z,2.30
2023-04-21T15:53:26.790Z,2.30
2023-04-21T15:55:55.257Z,2.30
2023-04-21T15:58:23.575Z,2.80
2023-04-21T16:00:52.487Z,2.10
2023-04-21T16:03:21.791Z,2.20
2023-04-21T16:05:50.987Z,2.20
2023-04-21T16:08:19.624Z,2.20
2023-04-21T16:10:47.835Z,1.90
2023-04-21T16:13:16.168Z,2.70
2023-04-21T16:15:44.711Z,2.10
2023-04-21T16:18:13.014Z,2.50
2023-04-21T16:20:42.953Z,2.70
2023-04-21T16:23:11.536Z,2.30
2023-04-21T16:25:39.871Z,2.20
2023-04-21T16:28:09.963Z,2.60
2023-04-21T16:30:43.799Z,2.00
2023-04-21T16:33:13.469Z,2.60
2023-04-21T16:35:41.976Z,2.30
2023-04-21T16:38:10.369Z,3.00
2023-04-21T16:40:38.840Z,3.00
2023-04-21T16:43:07.182Z,3.10
2023-04-21T16:45:36.646Z,2.40
2023-04-21T16:48:05.215Z,2.70
2023-04-21T16:50:34.288Z,2.60
2023-04-21T16:53:02.605Z,3.00
2023-04-21T16:55:31.783Z,3.10
2023-04-21T16:58:00.144Z,2.80
2023-04-21T17:00:30.425Z,2.80
2023-04-21T17:02:59.104Z,2.30
2023-04-21T17:05:27.710Z,2.90
2023-04-21T17:07:56.302Z,2.50
2023-04-21T17:10:27.286Z,2.50
2023-04-21T17:12:55.649Z,2.70
2023-04-21T17:15:23.864Z,3.20
2023-04-21T17:17:52.378Z,2.60
2023-04-21T17:20:20.786Z,2.70
2023-04-21T17:22:50.598Z,2.80
2023-04-21T17:25:19.336Z,2.10
2023-04-21T17:27:47.549Z,2.40
2023-04-21T17:30:16.336Z,2.50
2023-04-21T17:32:45.808Z,2.30
2023-04-21T17:35:14.248Z,2.20
2023-04-21T17:37:42.808Z,2.30
2023-04-21T17:40:11.499Z,2.40
2023-04-21T17:42:40.640Z,2.00
2023-04-21T17:45:09.508Z,3.40
2023-04-21T17:47:38.864Z,4.10
2023-04-21T17:50:09.966Z,3.60
2023-04-21T17:52:39.366Z,3.00
2023-04-21T17:55:08.095Z,2.70
2023-04-21T17:57:36.818Z,3.10
2023-04-21T18:00:08.162Z,3.10
2023-04-21T18:02:37.952Z,3.20
2023-04-21T18:05:07.029Z,3.70
2023-04-21T18:07:35.594Z,3.30
2023-04-21T18:10:04.100Z,3.30
2023-04-21T18:12:32.871Z,3.30
2023-04-21T18:15:01.755Z,2.80
2023-04-21T18:17:30.336Z,2.80
2023-04-21T18:19:58.725Z,3.50
2023-04-21T18:22:26.988Z,3.40
2023-04-21T18:24:55.619Z,3.00
2023-04-21T18:27:24.124Z,3.30
2023-04-21T18:29:52.508Z,4.40
2023-04-21T18:32:21.133Z,3.20
2023-04-21T18:34:49.449Z,3.90
2023-04-21T18:37:18.140Z,3.50
2023-04-21T18:39:46.595Z,4.10
2023-04-21T18:42:15.203Z,3.90
2023-04-21T18:44:43.534Z,3.70
2023-04-21T18:47:12.322Z,3.80
2023-04-21T18:49:42.287Z,3.80
2023-04-21T18:52:10.519Z,3.80
2023-04-21T18:54:39.019Z,3.60
2023-04-21T18:57:08.489Z,3.70
2023-04-21T18:59:37.073Z,3.90
2023-04-21T19:02:06.160Z,4.30
2023-04-21T19:04:35.502Z,4.20
2023-04-21T19:07:03.981Z,5.80
2023-04-21T19:09:32.643Z,5.40
2023-04-21T19:12:01.647Z,5.30
2023-04-21T19:14:39.597Z,4.80
2023-04-21T19:17:14.199Z,5.20
2023-04-21T19:19:42.758Z,5.30
2023-04-21T19:22:11.055Z,5.10
2023-04-21T19:24:39.942Z,5.50
2023-04-21T19:27:08.622Z,5.50
2023-04-21T19:29:37.208Z,5.60
2023-04-21T19:32:05.856Z,5.80
2023-04-21T19:34:34.571Z,6.30
2023-04-21T19:37:03.549Z,6.70
2023-04-21T19:39:32.674Z,6.10
2023-04-21T19:42:01.291Z,6.60
2023-04-21T19:44:30.154Z,6.50
2023-04-21T19:46:58.635Z,6.30
2023-04-21T19:49:27.353Z,5.80
2023-04-21T19:51:56.280Z,6.40
2023-04-21T19:54:24.498Z,6.10
2023-04-21T19:56:53.134Z,5.70
2023-04-21T19:59:21.752Z,6.30
2023-04-21T20:01:50.217Z,6.00
2023-04-21T20:04:18.683Z,6.50
2023-04-21T20:06:47.072Z,5.40
2023-04-21T20:09:16.217Z,5.00
2023-04-21T20:11:45.249Z,4.70
2023-04-21T20:14:13.960Z,5.00
2023-04-21T20:16:44.116Z,5.10
2023-04-21T20:19:17.733Z,4.70
2023-04-21T20:21:46.852Z,5.50
2023-04-21T20:24:15.654Z,4.50
2023-04-21T20:26:43.999Z,4.70
2023-04-21T20:29:12.208Z,4.90
2023-04-21T20:31:40.400Z,5.00
2023-04-21T20:34:08.933Z,4.80
2023-04-21T20:36:37.786Z,5.10
2023-04-21T20:39:06.802Z,4.80
2023-04-21T20:41:35.106Z,4.70
2023-04-21T20:44:04.056Z,4.90
2023-04-21T20:46:32.497Z,4.80
2023-04-21T20:49:01.330Z,4.90
2023-04-21T20:53:43.237Z,5.20
2023-04-21T20:56:11.619Z,5.70
2023-04-21T20:58:39.855Z,5.20
2023-04-21T21:01:08.474Z,5.60
2023-04-21T21:03:37.363Z,5.10
2023-04-21T21:06:06.039Z,5.20
2023-04-21T21:08:34.835Z,5.30
2023-04-21T21:11:03.335Z,5.20
2023-04-21T21:13:32.076Z,4.30
2023-04-21T21:16:00.484Z,5.20
2023-04-21T21:18:29.323Z,5.30
2023-04-21T21:20:57.680Z,5.60
2023-04-21T21:23:26.393Z,5.90
2023-04-21T21:25:54.647Z,5.50
2023-04-21T21:28:23.223Z,5.40
2023-04-21T21:30:51.638Z,4.90
2023-04-21T21:33:20.020Z,6.10
2023-04-21T21:35:48.328Z,5.10
2023-04-21T21:38:16.501Z,5.80
2023-04-21T21:40:44.907Z,5.00
2023-04-21T21:43:13.262Z,5.30
2023-04-21T21:45:41.518Z,5.30
2023-04-21T21:48:09.867Z,5.20
2023-04-21T21:50:38.569Z,5.20
2023-04-21T21:53:07.402Z,4.60
2023-04-21T21:55:35.831Z,5.10
2023-04-21T21:58:04.266Z,4.90
2023-04-21T22:00:32.502Z,4.00
2023-04-21T22:03:00.808Z,4.40
2023-04-21T22:05:29.485Z,4.40
2023-04-21T22:07:58.385Z,4.10
2023-04-21T22:10:27.226Z,5.30
2023-04-21T22:12:55.974Z,4.70
2023-04-21T22:15:24.188Z,4.60
2023-04-21T22:17:52.760Z,4.00
2023-04-21T22:20:22.254Z,4.20
2023-04-21T22:22:50.924Z,4.20
2023-04-21T22:25:19.508Z,3.90
2023-04-21T22:27:47.737Z,4.10
2023-04-21T22:30:15.985Z,4.60
2023-04-21T22:32:44.719Z,3.60
2023-04-21T22:35:13.002Z,4.50
2023-04-21T22:37:41.920Z,4.60
2023-04-21T22:40:10.281Z,4.10
2023-04-21T22:42:38.788Z,5.00
2023-04-21T22:45:07.908Z,4.20
2023-04-21T22:47:36.225Z,3.90
2023-04-21T22:50:05.012Z,5.10
2023-04-21T22:52:33.359Z,4.00
2023-04-21T22:55:01.893Z,4.70
2023-04-21T22:57:30.504Z,4.90
2023-04-21T22:59:58.937Z,4.20
2023-04-21T23:02:27.485Z,4.60
2023-04-21T23:04:56.089Z,4.50
2023-04-21T23:07:24.420Z,4.20
2023-04-21T23:09:52.754Z,4.80
2023-04-21T23:12:21.023Z,4.70
2023-04-21T23:14:49.202Z,4.70
2023-04-21T23:17:17.606Z,4.60
2023-04-21T23:19:46.141Z,4.50
2023-04-21T23:22:14.933Z,4.40
2023-04-21T23:24:43.266Z,4.30
2023-04-21T23:27:11.748Z,4.90
2023-04-21T23:29:40.637Z,4.20
2023-04-21T23:32:09.660Z,4.50
2023-04-21T23:34:38.300Z,4.40
2023-04-21T23:37:06.529Z,4.20
2023-04-21T23:39:34.928Z,3.60
2023-04-21T23:42:04.605Z,4.00
2023-04-21T23:44:33.225Z,4.50
2023-04-21T23:47:01.711Z,4.10
2023-04-21T23:49:30.249Z,4.50
2023-04-21T23:51:58.832Z,4.50
2023-04-21T23:54:27.057Z,4.10
2023-04-21T23:56:55.988Z,3.60
2023-04-21T23:59:24.256Z,3.90
